createdAt,value
2018-04-15T00:01:37.549Z,95.70
2018-04-15T00:04:05.765Z,95.80
2018-04-15T00:06:33.969Z,95.50
2018-04-15T00:09:02.397Z,96.00
2018-04-15T00:11:30.611Z,96.00
2018-04-15T00:13:58.897Z,96.10
2018-04-15T00:16:27.359Z,96.00
2018-04-15T00:18:55.547Z,96.20
2018-04-15T00:21:24.217Z,96.10
2018-04-15T00:23:53.508Z,96.10
2018-04-15T00:26:21.941Z,96.10
2018-04-15T00:28:51.049Z,95.80
2018-04-15T00:31:19.253Z,96.10
2018-04-15T00:33:53.876Z,96.50
2018-04-15T00:36:24.629Z,96.60
2018-04-15T00:38:53.937Z,96.70
2018-04-15T00:41:22.904Z,97.10
2018-04-15T00:43:51.105Z,97.10
2018-04-15T00:46:19.328Z,97.30
2018-04-15T00:48:48.229Z,97.20
2018-04-15T00:51:17.771Z,97.10
2018-04-15T00:53:58.506Z,97.40
2018-04-15T00:56:27.000Z,97.40
2018-04-15T00:58:55.684Z,97.40
2018-04-15T01:01:23.893Z,97.70
2018-04-15T01:03:52.885Z,97.70
2018-04-15T01:06:22.183Z,97.90
2018-04-15T01:08:51.578Z,97.40
2018-04-15T01:11:20.036Z,97.40
2018-04-15T01:13:49.445Z,97.20
2018-04-15T01:16:17.653Z,97.50
2018-04-15T01:18:46.500Z,97.50
2018-04-15T01:21:15.073Z,97.60
2018-04-15T01:23:43.785Z,97.60
2018-04-15T01:26:12.270Z,97.80
2018-04-15T01:28:40.489Z,97.80
2018-04-15T01:31:08.689Z,98.10
2018-04-15T01:33:36.934Z,97.90
2018-04-15T01:36:05.492Z,97.90
2018-04-15T01:38:35.212Z,98.40
2018-04-15T01:41:04.196Z,99.00
2018-04-15T01:43:32.406Z,99.00
2018-04-15T01:46:01.656Z,98.80
2018-04-15T01:48:30.368Z,98.90
2018-04-15T01:50:59.337Z,99.20
2018-04-15T01:53:27.892Z,99.20
2018-04-15T01:55:56.160Z,99.10
2018-04-15T01:58:24.900Z,98.90
2018-04-15T02:00:53.874Z,99.40
2018-04-15T02:03:22.564Z,99.40
2018-04-15T02:05:50.768Z,99.30
2018-04-15T02:08:20.596Z,99.50
2018-04-15T02:10:50.125Z,99.60
2018-04-15T02:13:18.340Z,99.50
2018-04-15T02:15:46.550Z,99.70
2018-04-15T02:18:14.763Z,99.30
2018-04-15T02:20:43.282Z,99.20
2018-04-15T02:23:11.482Z,99.00
2018-04-15T02:25:39.797Z,99.00
2018-04-15T02:28:08.004Z,99.90
2018-04-15T02:30:36.197Z,99.50
2018-04-15T02:33:04.426Z,99.80
2018-04-15T02:35:33.486Z,99.60
2018-04-15T02:38:02.973Z,99.90
2018-04-15T02:40:32.270Z,99.90
2018-04-15T02:43:00.472Z,99.90
2018-04-15T02:45:28.686Z,99.60
2018-04-15T02:47:57.500Z,99.60
2018-04-15T02:50:26.193Z,99.70
2018-04-15T02:52:54.673Z,99.50
2018-04-15T02:55:22.959Z,99.60
2018-04-15T02:57:51.438Z,99.70
2018-04-15T03:00:19.644Z,99.60
2018-04-15T03:02:47.866Z,99.60
2018-04-15T03:05:16.181Z,99.70
2018-04-15T03:07:44.712Z,99.90
2018-04-15T03:10:12.916Z,99.90
2018-04-15T03:12:41.112Z,99.90
2018-04-15T03:15:10.425Z,99.90
2018-04-15T03:17:39.398Z,99.90
2018-04-15T03:20:08.008Z,99.90
2018-04-15T03:22:36.245Z,99.90
2018-04-15T03:25:04.969Z,99.90
2018-04-15T03:27:33.940Z,99.90
2018-04-15T03:30:02.532Z,99.90
2018-04-15T03:32:31.520Z,99.90
2018-04-15T03:35:00.292Z,99.90
2018-04-15T03:37:29.072Z,99.90
2018-04-15T03:40:04.402Z,99.90
2018-04-15T03:42:32.829Z,99.90
2018-04-15T03:45:01.798Z,99.90
2018-04-15T03:47:30.237Z,99.90
2018-04-15T03:49:58.448Z,99.90
2018-04-15T03:52:26.750Z,99.90
2018-04-15T03:54:55.052Z,99.90
2018-04-15T03:57:23.612Z,99.90
2018-04-15T03:59:51.880Z,99.90
2018-04-15T04:02:20.526Z,99.90
2018-04-15T04:04:48.734Z,99.90
2018-04-15T04:07:16.928Z,99.90
2018-04-15T04:09:45.918Z,99.90
2018-04-15T04:12:14.117Z,99.90
2018-04-15T04:14:42.630Z,99.90
2018-04-15T04:17:12.512Z,99.90
2018-04-15T04:19:54.205Z,99.90
2018-04-15T04:22:34.257Z,99.90
2018-04-15T04:25:05.292Z,99.90
2018-04-15T04:27:33.493Z,99.90
2018-04-15T04:30:02.173Z,99.90
2018-04-15T04:32:31.286Z,99.90
2018-04-15T04:34:59.924Z,99.90
2018-04-15T04:37:29.396Z,99.90
2018-04-15T04:39:57.901Z,99.90
2018-04-15T04:42:26.097Z,99.90
2018-04-15T04:44:55.089Z,99.90
2018-04-15T04:47:24.170Z,99.90
2018-04-15T04:49:52.808Z,99.90
2018-04-15T04:52:24.422Z,99.90
2018-04-15T04:54:53.831Z,99.90
2018-04-15T04:57:22.125Z,99.90
2018-04-15T04:59:53.049Z,99.90
2018-04-15T05:02:22.248Z,99.90
2018-04-15T05:04:51.219Z,99.90
2018-04-15T05:07:19.428Z,99.90
2018-04-15T05:09:48.641Z,99.90
2018-04-15T05:12:16.833Z,99.90
2018-04-15T05:14:45.049Z,99.90
2018-04-15T05:17:13.281Z,99.90
2018-04-15T05:19:42.009Z,99.90
2018-04-15T05:22:10.213Z,99.90
2018-04-15T05:24:39.373Z,99.90
2018-04-15T05:27:07.568Z,99.90
2018-04-15T05:29:35.778Z,99.90
2018-04-15T05:32:04.428Z,99.90
2018-04-15T05:34:32.912Z,99.90
2018-04-15T05:37:05.511Z,99.90
2018-04-15T05:39:35.057Z,99.90
2018-04-15T05:42:03.261Z,99.90
2018-04-15T05:44:31.475Z,99.90
2018-04-15T05:46:59.840Z,99.90
2018-04-15T05:49:28.800Z,99.90
2018-04-15T05:51:57.006Z,99.90
2018-04-15T05:54:26.313Z,99.90
2018-04-15T05:56:55.717Z,99.90
2018-04-15T05:59:25.227Z,99.90
2018-04-15T06:01:53.644Z,99.90
2018-04-15T06:04:22.537Z,99.90
2018-04-15T06:06:51.275Z,99.90
2018-04-15T06:09:19.581Z,99.90
2018-04-15T06:11:47.955Z,99.90
2018-04-15T06:14:16.291Z,99.90
2018-04-15T06:16:44.532Z,99.90
2018-04-15T06:19:17.249Z,99.90
2018-04-15T06:21:45.440Z,99.90
2018-04-15T06:24:13.637Z,99.90
2018-04-15T06:26:42.294Z,99.90
2018-04-15T06:29:10.493Z,99.90
2018-04-15T06:31:38.701Z,99.90
2018-04-15T06:34:07.162Z,99.90
2018-04-15T06:36:35.837Z,99.90
2018-04-15T06:39:05.757Z,99.90
2018-04-15T06:41:35.468Z,99.90
2018-04-15T06:44:04.435Z,99.90
2018-04-15T06:46:32.831Z,99.90
2018-04-15T06:49:01.830Z,99.90
2018-04-15T06:51:31.177Z,99.90
2018-04-15T06:54:00.511Z,99.90
2018-04-15T06:56:35.694Z,99.90
2018-04-15T06:59:04.231Z,99.90
2018-04-15T07:01:32.443Z,99.90
2018-04-15T07:04:00.624Z,99.90
2018-04-15T07:06:29.136Z,99.90
2018-04-15T07:08:57.711Z,99.90
2018-04-15T07:11:25.927Z,99.90
2018-04-15T07:13:54.124Z,99.90
2018-04-15T07:16:23.169Z,99.90
2018-04-15T07:18:52.136Z,99.90
2018-04-15T07:21:20.901Z,99.90
2018-04-15T07:23:49.873Z,99.90
2018-04-15T07:26:18.449Z,99.90
2018-04-15T07:28:46.656Z,99.90
2018-04-15T07:31:15.627Z,99.60
2018-04-15T07:33:44.146Z,99.60
2018-04-15T07:36:13.028Z,99.50
2018-04-15T07:38:45.876Z,99.30
2018-04-15T07:41:14.086Z,99.30
2018-04-15T07:43:43.368Z,98.90
2018-04-15T07:46:12.516Z,98.90
2018-04-15T07:48:40.896Z,98.80
2018-04-15T07:51:09.103Z,98.70
2018-04-15T07:53:37.748Z,98.50
2018-04-15T07:56:07.262Z,98.70
2018-04-15T07:58:35.884Z,98.70
2018-04-15T08:01:04.085Z,98.60
2018-04-15T08:03:32.289Z,98.10
2018-04-15T08:06:00.757Z,98.20
2018-04-15T08:08:29.854Z,97.90
2018-04-15T08:10:59.956Z,97.60
2018-04-15T08:13:29.733Z,97.60
2018-04-15T08:15:57.905Z,97.20
2018-04-15T08:18:26.120Z,97.10
2018-04-15T08:20:55.188Z,97.50
2018-04-15T08:23:23.388Z,97.50
2018-04-15T08:25:53.126Z,96.40
2018-04-15T08:28:22.293Z,96.30
2018-04-15T08:30:50.501Z,95.70
2018-04-15T08:33:18.695Z,97.00
2018-04-15T08:35:47.550Z,96.30
2018-04-15T08:38:16.783Z,95.90
2018-04-15T08:40:45.057Z,95.90
2018-04-15T08:43:13.308Z,95.30
2018-04-15T08:45:44.866Z,95.00
2018-04-15T08:48:13.075Z,94.40
2018-04-15T08:50:42.704Z,94.40
2018-04-15T08:53:10.906Z,94.40
2018-04-15T08:55:39.871Z,93.40
2018-04-15T08:58:08.384Z,92.60
2018-04-15T09:00:37.390Z,92.90
2018-04-15T09:03:05.584Z,92.80
2018-04-15T09:05:33.820Z,92.60
2018-04-15T09:08:02.925Z,92.30
2018-04-15T09:10:32.670Z,92.00
2018-04-15T09:13:01.155Z,92.00
2018-04-15T09:15:29.380Z,91.80
2018-04-15T09:17:57.588Z,91.20
2018-04-15T09:20:26.704Z,91.10
2018-04-15T09:22:55.327Z,91.10
2018-04-15T09:25:23.838Z,90.80
2018-04-15T09:27:52.898Z,90.00
2018-04-15T09:30:21.163Z,90.00
2018-04-15T09:32:49.357Z,89.90
2018-04-15T09:35:17.884Z,90.20
2018-04-15T09:37:46.236Z,89.50
2018-04-15T09:40:14.932Z,88.60
2018-04-15T09:42:44.428Z,90.00
2018-04-15T09:45:12.705Z,90.00
2018-04-15T09:47:40.994Z,90.00
2018-04-15T09:50:10.077Z,89.00
2018-04-15T09:52:38.327Z,89.00
2018-04-15T09:55:06.881Z,87.30
2018-04-15T09:57:35.325Z,87.30
2018-04-15T10:00:03.549Z,87.20
2018-04-15T10:02:31.761Z,86.70
2018-04-15T10:05:00.168Z,89.10
2018-04-15T10:07:29.152Z,87.40
2018-04-15T10:09:57.742Z,87.20
2018-04-15T10:12:26.717Z,88.30
2018-04-15T10:14:55.510Z,88.30
2018-04-15T10:17:24.002Z,87.80
2018-04-15T10:19:53.228Z,84.50
2018-04-15T10:22:21.461Z,83.90
2018-04-15T10:24:49.933Z,83.50
2018-04-15T10:27:18.124Z,83.80
2018-04-15T10:29:46.322Z,83.60
2018-04-15T10:32:15.327Z,84.10
2018-04-15T10:34:44.517Z,83.90
2018-04-15T10:37:19.332Z,81.50
2018-04-15T10:39:48.750Z,80.60
2018-04-15T10:42:16.963Z,80.60
2018-04-15T10:44:45.164Z,80.50
2018-04-15T10:47:13.473Z,81.30
2018-04-15T10:49:42.833Z,83.50
2018-04-15T10:52:11.034Z,82.90
2018-04-15T10:54:39.748Z,83.90
2018-04-15T10:57:09.035Z,81.90
2018-04-15T10:59:37.233Z,81.80
2018-04-15T11:02:05.490Z,81.50
2018-04-15T11:04:34.276Z,80.90
2018-04-15T11:07:03.279Z,81.00
2018-04-15T11:09:37.991Z,77.50
2018-04-15T11:12:06.202Z,77.50
2018-04-15T11:14:34.456Z,80.10
2018-04-15T11:17:03.433Z,78.40
2018-04-15T11:19:31.743Z,78.40
2018-04-15T11:22:01.042Z,74.20
2018-04-15T11:24:30.544Z,74.70
2018-04-15T11:26:59.790Z,76.20
2018-04-15T11:29:28.148Z,76.20
2018-04-15T11:31:56.367Z,72.10
2018-04-15T11:34:24.931Z,71.30
2018-04-15T11:36:53.257Z,72.50
2018-04-15T11:39:22.276Z,72.40
2018-04-15T11:41:50.499Z,72.30
2018-04-15T11:44:19.009Z,70.30
2018-04-15T11:46:47.290Z,68.60
2018-04-15T11:49:16.269Z,71.00
2018-04-15T11:51:44.485Z,71.00
2018-04-15T11:54:12.749Z,71.20
2018-04-15T11:56:41.726Z,70.20
2018-04-15T11:59:09.969Z,66.80
2018-04-15T12:01:44.109Z,61.90
2018-04-15T12:04:12.994Z,61.10
2018-04-15T12:06:41.202Z,62.50
2018-04-15T12:09:09.751Z,65.60
2018-04-15T12:11:37.948Z,62.00
2018-04-15T12:14:06.917Z,60.20
2018-04-15T12:16:35.145Z,60.30
2018-04-15T12:19:03.360Z,60.90
2018-04-15T12:21:32.280Z,59.60
2018-04-15T12:24:01.269Z,59.20
2018-04-15T12:26:29.549Z,59.30
2018-04-15T12:28:57.764Z,57.10
2018-04-15T12:31:26.228Z,56.00
2018-04-15T12:33:55.531Z,58.00
2018-04-15T12:36:24.268Z,57.90
2018-04-15T12:38:53.129Z,56.10
2018-04-15T12:41:21.569Z,56.00
2018-04-15T12:43:50.608Z,57.60
2018-04-15T12:48:52.703Z,55.90
2018-04-15T12:51:20.938Z,59.20
2018-04-15T12:53:55.631Z,58.10
2018-04-15T12:56:23.857Z,55.80
2018-04-15T12:58:52.207Z,55.40
2018-04-15T13:01:21.225Z,54.20
2018-04-15T13:03:49.434Z,54.20
2018-04-15T13:06:17.660Z,53.30
2018-04-15T13:08:47.264Z,54.20
2018-04-15T13:11:15.478Z,54.20
2018-04-15T13:13:43.925Z,53.90
2018-04-15T13:16:12.143Z,53.90
2018-04-15T13:18:40.865Z,53.90
2018-04-15T13:21:09.762Z,54.50
2018-04-15T13:23:38.010Z,54.40
2018-04-15T13:26:06.628Z,54.50
2018-04-15T13:28:35.330Z,55.10
2018-04-15T13:31:04.291Z,52.70
2018-04-15T13:33:32.598Z,52.50
2018-04-15T13:36:00.891Z,52.00
2018-04-15T13:38:29.508Z,52.60
2018-04-15T13:40:59.242Z,52.30
2018-04-15T13:43:27.455Z,52.40
2018-04-15T13:45:56.532Z,51.50
2018-04-15T13:48:24.737Z,51.30
2018-04-15T13:50:52.951Z,51.40
2018-04-15T13:53:21.249Z,51.90
2018-04-15T13:55:49.832Z,52.50
2018-04-15T13:58:18.333Z,50.60
2018-04-15T14:00:46.550Z,51.30
2018-04-15T14:03:14.772Z,50.60
2018-04-15T14:05:43.027Z,51.60
2018-04-15T14:08:11.744Z,48.30
2018-04-15T14:10:39.944Z,48.40
2018-04-15T14:13:08.161Z,47.10
2018-04-15T14:15:36.381Z,47.60
2018-04-15T14:18:05.352Z,48.30
2018-04-15T14:20:33.934Z,48.20
2018-04-15T14:23:02.134Z,48.40
2018-04-15T14:25:31.188Z,47.40
2018-04-15T14:27:59.332Z,47.80
2018-04-15T14:30:27.528Z,47.30
2018-04-15T14:32:56.059Z,45.70
2018-04-15T14:35:25.681Z,45.00
2018-04-15T14:37:55.423Z,44.80
2018-04-15T14:40:23.684Z,44.80
2018-04-15T14:42:51.929Z,44.50
2018-04-15T14:45:20.697Z,43.60
2018-04-15T14:47:49.088Z,44.60
2018-04-15T14:50:17.803Z,45.40
2018-04-15T14:52:46.785Z,46.10
2018-04-15T14:55:15.499Z,46.10
2018-04-15T14:57:44.045Z,46.70
2018-04-15T15:00:12.259Z,46.80
2018-04-15T15:02:40.456Z,47.20
2018-04-15T15:05:08.884Z,47.30
2018-04-15T15:07:41.594Z,45.50
2018-04-15T15:10:10.297Z,46.60
2018-04-15T15:12:38.499Z,46.60
2018-04-15T15:15:06.692Z,46.80
2018-04-15T15:17:35.094Z,46.90
2018-04-15T15:20:04.589Z,47.30
2018-04-15T15:22:33.560Z,47.40
2018-04-15T15:25:02.170Z,47.40
2018-04-15T15:27:30.444Z,48.30
2018-04-15T15:29:59.795Z,49.00
2018-04-15T15:32:28.008Z,48.30
2018-04-15T15:34:56.578Z,49.20
2018-04-15T15:37:24.793Z,48.40
2018-04-15T15:39:54.042Z,48.90
2018-04-15T15:42:22.873Z,48.90
2018-04-15T15:44:51.456Z,49.30
2018-04-15T15:47:24.676Z,50.30
2018-04-15T15:49:52.885Z,49.80
2018-04-15T15:52:21.163Z,50.20
2018-04-15T15:54:49.483Z,50.60
2018-04-15T15:57:17.750Z,50.20
2018-04-15T15:59:46.254Z,50.30
2018-04-15T16:02:15.236Z,49.60
2018-04-15T16:04:43.437Z,49.60
2018-04-15T16:07:11.821Z,49.70
2018-04-15T16:09:41.001Z,49.50
2018-04-15T16:12:09.981Z,49.70
2018-04-15T16:14:38.190Z,49.80
2018-04-15T16:17:06.648Z,50.50
2018-04-15T16:19:35.966Z,50.30
2018-04-15T16:22:04.291Z,50.30
2018-04-15T16:24:32.806Z,50.90
2018-04-15T16:27:01.001Z,50.00
2018-04-15T16:29:29.205Z,49.60
2018-04-15T16:31:57.499Z,50.30
2018-04-15T16:34:26.325Z,50.70
2018-04-15T16:36:55.492Z,51.40
2018-04-15T16:39:24.093Z,51.30
2018-04-15T16:41:52.384Z,50.60
2018-04-15T16:44:21.554Z,50.70
2018-04-15T16:46:50.157Z,50.60
2018-04-15T16:49:18.442Z,50.80
2018-04-15T16:51:46.716Z,51.00
2018-04-15T16:54:15.047Z,50.80
2018-04-15T16:56:43.554Z,51.00
2018-04-15T16:59:11.761Z,50.90
2018-04-15T17:01:45.920Z,51.30
2018-04-15T17:04:14.149Z,51.30
2018-04-15T17:06:42.629Z,51.70
2018-04-15T17:09:10.888Z,52.20
2018-04-15T17:11:39.093Z,52.50
2018-04-15T17:14:07.308Z,52.50
2018-04-15T17:16:35.521Z,52.90
2018-04-15T17:19:04.436Z,53.40
2018-04-15T17:21:33.467Z,53.90
2018-04-15T17:24:02.423Z,53.90
2018-04-15T17:26:31.276Z,54.50
2018-04-15T17:28:59.674Z,54.50
2018-04-15T17:31:28.166Z,56.30
2018-04-15T17:33:58.333Z,58.00
2018-04-15T17:36:26.609Z,58.00
2018-04-15T17:38:55.184Z,58.50
2018-04-15T17:41:24.063Z,59.90
2018-04-15T17:43:52.274Z,60.00
2018-04-15T17:46:21.007Z,59.30
2018-04-15T17:48:50.071Z,58.80
2018-04-15T17:51:18.283Z,58.70
2018-04-15T17:53:47.256Z,59.00
2018-04-15T17:56:15.768Z,59.00
2018-04-15T17:58:44.817Z,58.50
2018-04-15T18:01:13.039Z,58.40
2018-04-15T18:03:41.742Z,59.20
2018-04-15T18:06:09.967Z,59.30
2018-04-15T18:08:39.001Z,60.30
2018-04-15T18:11:07.212Z,59.00
2018-04-15T18:13:35.475Z,59.40
2018-04-15T18:16:04.136Z,61.20
2018-04-15T18:18:32.349Z,61.50
2018-04-15T18:21:01.705Z,62.90
2018-04-15T18:23:29.934Z,62.80
2018-04-15T18:25:58.218Z,63.20
2018-04-15T18:28:26.506Z,62.40
2018-04-15T18:30:55.321Z,62.80
2018-04-15T18:33:24.641Z,63.30
2018-04-15T18:35:53.107Z,63.30
2018-04-15T18:38:22.408Z,64.30
2018-04-15T18:40:51.450Z,64.60
2018-04-15T18:43:19.676Z,64.60
2018-04-15T18:45:47.947Z,64.10
2018-04-15T18:48:16.167Z,64.90
2018-04-15T18:50:44.371Z,63.50
2018-04-15T18:53:12.862Z,63.60
2018-04-15T18:55:41.623Z,63.60
2018-04-15T18:58:09.955Z,63.70
2018-04-15T19:00:38.153Z,63.40
2018-04-15T19:03:06.642Z,63.00
2018-04-15T19:05:34.840Z,62.70
2018-04-15T19:08:04.445Z,62.70
2018-04-15T19:10:32.645Z,62.60
2018-04-15T19:13:07.745Z,63.10
2018-04-15T19:15:36.388Z,63.40
2018-04-15T19:18:04.883Z,63.30
2018-04-15T19:20:33.969Z,63.70
2018-04-15T19:23:02.174Z,63.70
2018-04-15T19:25:30.971Z,64.50
2018-04-15T19:27:59.174Z,65.30
2018-04-15T19:30:27.454Z,65.50
2018-04-15T19:32:55.669Z,65.70
2018-04-15T19:35:25.174Z,64.70
2018-04-15T19:37:53.756Z,64.70
2018-04-15T19:40:22.336Z,64.70
2018-04-15T19:42:51.017Z,66.00
2018-04-15T19:45:19.316Z,65.40
2018-04-15T19:47:47.995Z,66.60
2018-04-15T19:50:16.736Z,65.40
2018-04-15T19:52:44.960Z,65.10
2018-04-15T19:55:13.288Z,65.80
2018-04-15T19:57:41.939Z,66.20
2018-04-15T20:00:10.116Z,67.30
2018-04-15T20:02:38.318Z,67.70
2018-04-15T20:05:06.975Z,67.80
2018-04-15T20:07:41.999Z,68.60
2018-04-15T20:10:11.078Z,68.80
2018-04-15T20:12:39.306Z,68.80
2018-04-15T20:15:07.580Z,69.10
2018-04-15T20:17:35.892Z,68.80
2018-04-15T20:20:04.144Z,69.60
2018-04-15T20:22:32.823Z,70.10
2018-04-15T20:25:01.495Z,70.20
2018-04-15T20:27:29.711Z,70.60
2018-04-15T20:29:58.716Z,71.00
2018-04-15T20:32:26.958Z,71.00
2018-04-15T20:34:55.588Z,71.10
2018-04-15T20:37:24.296Z,72.00
2018-04-15T20:39:53.593Z,73.30
2018-04-15T20:42:22.573Z,73.70
2018-04-15T20:44:50.777Z,73.70
2018-04-15T20:47:19.511Z,73.60
2018-04-15T20:49:47.681Z,74.60
2018-04-15T20:52:15.893Z,74.30
2018-04-15T20:54:44.365Z,74.40
2018-04-15T20:57:12.952Z,74.40
2018-04-15T20:59:41.214Z,74.70
2018-04-15T21:02:09.806Z,75.00
2018-04-15T21:04:38.097Z,75.40
2018-04-15T21:07:06.294Z,74.50
2018-04-15T21:09:35.948Z,76.50
2018-04-15T21:12:04.567Z,76.50
2018-04-15T21:14:32.789Z,76.60
2018-04-15T21:17:02.407Z,73.40
2018-04-15T21:19:43.551Z,73.40
2018-04-15T21:22:12.777Z,73.50
2018-04-15T21:24:41.086Z,73.30
2018-04-15T21:27:09.289Z,72.20
2018-04-15T21:29:37.765Z,72.50
2018-04-15T21:32:07.854Z,74.30
2018-04-15T21:34:37.197Z,75.30
2018-04-15T21:37:06.165Z,75.60
2018-04-15T21:39:35.773Z,75.60
2018-04-15T21:42:03.982Z,75.80
2018-04-15T21:44:34.402Z,76.70
2018-04-15T21:47:02.965Z,76.60
2018-04-15T21:49:31.240Z,76.90
2018-04-15T21:51:59.462Z,76.10
2018-04-15T21:54:27.757Z,76.70
2018-04-15T21:56:56.524Z,77.20
2018-04-15T21:59:25.489Z,78.70
2018-04-15T22:01:53.698Z,78.70
2018-04-15T22:04:22.158Z,79.50
2018-04-15T22:06:51.650Z,80.60
2018-04-15T22:09:20.381Z,80.50
2018-04-15T22:12:00.475Z,81.30
2018-04-15T22:14:28.701Z,81.60
2018-04-15T22:16:57.489Z,81.30
2018-04-15T22:19:25.697Z,81.40
2018-04-15T22:21:54.208Z,84.70
2018-04-15T22:24:25.412Z,84.60
2018-04-15T22:26:53.630Z,84.40
2018-04-15T22:29:21.840Z,85.70
2018-04-15T22:31:50.889Z,88.30
2018-04-15T22:34:19.694Z,88.30
2018-04-15T22:36:47.901Z,88.80
2018-04-15T22:39:16.668Z,90.20
2018-04-15T22:41:45.648Z,89.60
2018-04-15T22:44:13.844Z,89.00
2018-04-15T22:46:43.021Z,89.20
2018-04-15T22:49:16.954Z,89.00
2018-04-15T22:51:45.995Z,90.40
2018-04-15T22:54:14.733Z,90.40
2018-04-15T22:56:43.620Z,90.20
2018-04-15T22:59:11.821Z,90.60
2018-04-15T23:01:43.792Z,90.60
2018-04-15T23:04:12.436Z,91.20
2018-04-15T23:06:40.696Z,91.70
2018-04-15T23:09:09.209Z,91.70
2018-04-15T23:11:38.181Z,93.00
2018-04-15T23:14:06.380Z,93.00
2018-04-15T23:16:34.755Z,94.40
2018-04-15T23:19:02.971Z,95.70
2018-04-15T23:21:31.242Z,96.00
2018-04-15T23:23:59.889Z,95.90
2018-04-15T23:26:28.495Z,95.60
2018-04-15T23:28:57.472Z,96.40
2018-04-15T23:31:26.245Z,96.40
2018-04-15T23:33:55.489Z,95.80
2018-04-15T23:36:23.692Z,95.40
2018-04-15T23:38:52.661Z,96.70
2018-04-15T23:41:20.879Z,97.50
2018-04-15T23:43:49.080Z,97.20
2018-04-15T23:46:18.163Z,97.60
2018-04-15T23:48:46.377Z,97.80
2018-04-15T23:51:14.585Z,98.90
2018-04-15T23:53:42.808Z,98.90
2018-04-15T23:56:11.980Z,99.40
2018-04-15T23:58:40.588Z,99.40
